sensor_id;sensor_type;location;lat;lon;timestamp;P1;durP1;ratioP1;P2;durP2;ratioP2
9667;SDS011;4872;48.316;10.650;2023-04-10T04:05:54;12.07;;;9.13;;
9667;SDS011;4872;48.316;10.650;2023-04-10T04:08:21;13.20;;;10.00;;
9667;SDS011;4872;48.316;10.650;2023-04-10T04:10:48;13.70;;;10.10;;
9667;SDS011;4872;48.316;10.650;2023-04-10T04:13:15;12.93;;;10.13;;
9667;SDS011;4872;48.316;10.650;2023-04-10T04:15:41;12.27;;;10.03;;
9667;SDS011;4872;48.316;10.650;2023-04-10T04:18:08;13.23;;;10.40;;
9667;SDS011;4872;48.316;10.650;2023-04-10T04:20:35;12.33;;;9.10;;
9667;SDS011;4872;48.316;10.650;2023-04-10T04:23:03;12.43;;;9.80;;
9667;SDS011;4872;48.316;10.650;2023-04-10T04:25:30;11.43;;;9.67;;
9667;SDS011;4872;48.316;10.650;2023-04-10T04:27:56;13.87;;;10.53;;
9667;SDS011;4872;48.316;10.650;2023-04-10T04:30:23;13.50;;;10.30;;
9667;SDS011;4872;48.316;10.650;2023-04-10T04:32:50;12.70;;;9.67;;
9667;SDS011;4872;48.316;10.650;2023-04-10T04:35:16;13.33;;;10.13;;
9667;SDS011;4872;48.316;10.650;2023-04-10T04:37:43;11.97;;;9.33;;
9667;SDS011;4872;48.316;10.650;2023-04-10T04:40:11;13.60;;;10.10;;
9667;SDS011;4872;48.316;10.650;2023-04-10T04:42:38;13.70;;;10.60;;
9667;SDS011;4872;48.316;10.650;2023-04-10T04:45:05;11.70;;;9.57;;
9667;SDS011;4872;48.316;10.650;2023-04-10T04:47:33;12.97;;;9.87;;
9667;SDS011;4872;48.316;10.650;2023-04-10T04:50:00;14.77;;;10.70;;
9667;SDS011;4872;48.316;10.650;2023-04-10T04:52:27;13.97;;;10.10;;
9667;SDS011;4872;48.316;10.650;2023-04-10T04:54:53;12.50;;;9.13;;
9667;SDS011;4872;48.316;10.650;2023-04-10T04:57:21;12.90;;;8.90;;
9667;SDS011;4872;48.316;10.650;2023-04-10T04:59:48;11.90;;;9.47;;
9667;SDS011;4872;48.316;10.650;2023-04-10T05:02:15;12.30;;;9.03;;
9667;SDS011;4872;48.316;10.650;2023-04-10T05:04:42;13.30;;;9.50;;
9667;SDS011;4872;48.316;10.650;2023-04-10T05:07:09;13.07;;;9.53;;
9667;SDS011;4872;48.316;10.650;2023-04-10T05:09:36;14.00;;;9.87;;
9667;SDS011;4872;48.316;10.650;2023-04-10T05:12:02;12.73;;;9.77;;
9667;SDS011;4872;48.316;10.650;2023-04-10T05:14:31;13.83;;;10.13;;
9667;SDS011;4872;48.316;10.650;2023-04-10T05:16:58;13.17;;;10.30;;
9667;SDS011;4872;48.316;10.650;2023-04-10T05:19:24;11.57;;;9.03;;
9667;SDS011;4872;48.316;10.650;2023-04-10T05:21:51;12.73;;;9.73;;
9667;SDS011;4872;48.316;10.650;2023-04-10T05:24:18;13.77;;;9.67;;
9667;SDS011;4872;48.316;10.650;2023-04-10T05:26:45;13.30;;;10.13;;
9667;SDS011;4872;48.316;10.650;2023-04-10T05:29:12;12.93;;;10.00;;
9667;SDS011;4872;48.316;10.650;2023-04-10T05:31:40;13.13;;;9.83;;
9667;SDS011;4872;48.316;10.650;2023-04-10T05:34:07;10.87;;;8.50;;
9667;SDS011;4872;48.316;10.650;2023-04-10T05:36:34;13.33;;;9.07;;
9667;SDS011;4872;48.316;10.650;2023-04-10T05:39:00;13.20;;;9.50;;
9667;SDS011;4872;48.316;10.650;2023-04-10T05:41:27;12.33;;;9.97;;
9667;SDS011;4872;48.316;10.650;2023-04-10T05:43:54;11.57;;;9.80;;
9667;SDS011;4872;48.316;10.650;2023-04-10T05:46:21;13.13;;;10.27;;
9667;SDS011;4872;48.316;10.650;2023-04-10T05:48:49;13.07;;;9.30;;
9667;SDS011;4872;48.316;10.650;2023-04-10T05:51:16;13.47;;;10.33;;
9667;SDS011;4872;48.316;10.650;2023-04-10T05:53:42;15.10;;;10.40;;
9667;SDS011;4872;48.316;10.650;2023-04-10T05:56:09;13.00;;;9.60;;
9667;SDS011;4872;48.316;10.650;2023-04-10T05:58:36;13.83;;;11.00;;
9667;SDS011;4872;48.316;10.650;2023-04-10T06:01:02;14.03;;;11.37;;
9667;SDS011;4872;48.316;10.650;2023-04-10T06:03:30;14.53;;;10.93;;
9667;SDS011;4872;48.316;10.650;2023-04-10T06:05:58;14.67;;;11.23;;
9667;SDS011;4872;48.316;10.650;2023-04-10T06:08:26;15.43;;;11.13;;
9667;SDS011;4872;48.316;10.650;2023-04-10T06:10:53;16.80;;;11.33;;
9667;SDS011;4872;48.316;10.650;2023-04-10T06:13:20;14.47;;;10.50;;
9667;SDS011;4872;48.316;10.650;2023-04-10T06:15:46;16.23;;;11.07;;
9667;SDS011;4872;48.316;10.650;2023-04-10T06:18:13;13.93;;;11.03;;
9667;SDS011;4872;48.316;10.650;2023-04-10T06:20:40;15.90;;;10.90;;
9667;SDS011;4872;48.316;10.650;2023-04-10T06:23:08;15.40;;;10.97;;
9667;SDS011;4872;48.316;10.650;2023-04-10T06:25:35;16.67;;;12.10;;
9667;SDS011;4872;48.316;10.650;2023-04-10T06:28:02;14.73;;;11.00;;
9667;SDS011;4872;48.316;10.650;2023-04-10T06:30:29;14.57;;;11.03;;
9667;SDS011;4872;48.316;10.650;2023-04-10T06:32:58;15.93;;;10.93;;
9667;SDS011;4872;48.316;10.650;2023-04-10T06:35:25;15.17;;;11.47;;
9667;SDS011;4872;48.316;10.650;2023-04-10T06:37:52;14.13;;;10.63;;
9667;SDS011;4872;48.316;10.650;2023-04-10T06:40:20;15.20;;;11.30;;
9667;SDS011;4872;48.316;10.650;2023-04-10T06:42:47;13.30;;;9.80;;
9667;SDS011;4872;48.316;10.650;2023-04-10T06:45:14;12.07;;;9.93;;
9667;SDS011;4872;48.316;10.650;2023-04-10T06:47:40;15.00;;;10.03;;
9667;SDS011;4872;48.316;10.650;2023-04-10T06:50:07;12.30;;;9.97;;
9667;SDS011;4872;48.316;10.650;2023-04-10T06:52:34;13.00;;;9.97;;
9667;SDS011;4872;48.316;10.650;2023-04-10T06:55:01;12.60;;;9.53;;
9667;SDS011;4872;48.316;10.650;2023-04-10T06:57:29;11.53;;;8.47;;
9667;SDS011;4872;48.316;10.650;2023-04-10T06:59:56;10.67;;;8.30;;
9667;SDS011;4872;48.316;10.650;2023-04-10T07:02:23;11.17;;;8.43;;
9667;SDS011;4872;48.316;10.650;2023-04-10T07:04:49;10.43;;;7.67;;
9667;SDS011;4872;48.316;10.650;2023-04-10T07:07:17;12.13;;;9.13;;
9667;SDS011;4872;48.316;10.650;2023-04-10T07:09:44;12.00;;;9.13;;
9667;SDS011;4872;48.316;10.650;2023-04-10T07:12:11;9.97;;;7.93;;
9667;SDS011;4872;48.316;10.650;2023-04-10T07:14:39;13.10;;;9.07;;
9667;SDS011;4872;48.316;10.650;2023-04-10T07:17:06;11.73;;;8.37;;
9667;SDS011;4872;48.316;10.650;2023-04-10T07:19:33;10.90;;;8.30;;
9667;SDS011;4872;48.316;10.650;2023-04-10T07:22:02;11.90;;;9.50;;
9667;SDS011;4872;48.316;10.650;2023-04-10T07:24:29;9.47;;;8.27;;
9667;SDS011;4872;48.316;10.650;2023-04-10T07:26:56;9.80;;;8.40;;
9667;SDS011;4872;48.316;10.650;2023-04-10T07:29:24;11.60;;;8.70;;
9667;SDS011;4872;48.316;10.650;2023-04-10T07:31:52;9.57;;;7.97;;
9667;SDS011;4872;48.316;10.650;2023-04-10T07:34:19;10.37;;;8.43;;
9667;SDS011;4872;48.316;10.650;2023-04-10T07:36:46;10.97;;;8.33;;
9667;SDS011;4872;48.316;10.650;2023-04-10T07:39:12;10.13;;;8.07;;
9667;SDS011;4872;48.316;10.650;2023-04-10T07:41:39;10.90;;;8.40;;
9667;SDS011;4872;48.316;10.650;2023-04-10T07:44:06;11.23;;;8.47;;
9667;SDS011;4872;48.316;10.650;2023-04-10T07:46:32;9.40;;;7.83;;
9667;SDS011;4872;48.316;10.650;2023-04-10T07:49:01;10.53;;;7.47;;
9667;SDS011;4872;48.316;10.650;2023-04-10T07:51:27;11.30;;;8.00;;
9667;SDS011;4872;48.316;10.650;2023-04-10T07:53:54;9.60;;;8.20;;
9667;SDS011;4872;48.316;10.650;2023-04-10T07:56:21;10.60;;;8.67;;
9667;SDS011;4872;48.316;10.650;2023-04-10T07:58:50;11.53;;;8.43;;
9667;SDS011;4872;48.316;10.650;2023-04-10T08:01:17;9.33;;;7.73;;
9667;SDS011;4872;48.316;10.650;2023-04-10T08:03:44;9.17;;;8.07;;
9667;SDS011;4872;48.316;10.650;2023-04-10T08:06:12;10.43;;;7.73;;
9667;SDS011;4872;48.316;10.650;2023-04-10T08:08:39;9.73;;;7.63;;
9667;SDS011;4872;48.316;10.650;2023-04-10T08:11:20;9.43;;;7.23;;
9667;SDS011;4872;48.316;10.650;2023-04-10T08:13:48;9.13;;;7.50;;
9667;SDS011;4872;48.316;10.650;2023-04-10T08:16:15;9.37;;;7.30;;
9667;SDS011;4872;48.316;10.650;2023-04-10T08:18:43;8.93;;;7.83;;
9667;SDS011;4872;48.316;10.650;2023-04-10T08:21:10;9.57;;;7.63;;
9667;SDS011;4872;48.316;10.650;2023-04-10T08:23:38;8.87;;;7.53;;
9667;SDS011;4872;48.316;10.650;2023-04-10T08:26:05;8.03;;;6.67;;
9667;SDS011;4872;48.316;10.650;2023-04-10T08:28:32;8.17;;;6.90;;
9667;SDS011;4872;48.316;10.650;2023-04-10T08:31:00;9.10;;;7.07;;
9667;SDS011;4872;48.316;10.650;2023-04-10T08:33:27;9.37;;;7.50;;
9667;SDS011;4872;48.316;10.650;2023-04-10T08:35:53;9.17;;;7.23;;
9667;SDS011;4872;48.316;10.650;2023-04-10T08:38:20;10.07;;;7.00;;
9667;SDS011;4872;48.316;10.650;2023-04-10T08:40:50;7.37;;;6.30;;
9667;SDS011;4872;48.316;10.650;2023-04-10T08:43:17;7.63;;;6.43;;
9667;SDS011;4872;48.316;10.650;2023-04-10T08:45:44;8.77;;;6.20;;
9667;SDS011;4872;48.316;10.650;2023-04-10T08:48:10;7.40;;;6.43;;
9667;SDS011;4872;48.316;10.650;2023-04-10T08:50:40;7.20;;;6.43;;
9667;SDS011;4872;48.316;10.650;2023-04-10T08:53:09;7.57;;;6.77;;
9667;SDS011;4872;48.316;10.650;2023-04-10T08:55:37;8.00;;;6.60;;
9667;SDS011;4872;48.316;10.650;2023-04-10T08:58:06;9.10;;;7.07;;
9667;SDS011;4872;48.316;10.650;2023-04-10T09:00:34;6.87;;;6.00;;
9667;SDS011;4872;48.316;10.650;2023-04-10T09:03:02;8.10;;;5.90;;
9667;SDS011;4872;48.316;10.650;2023-04-10T09:05:32;6.93;;;6.13;;
9667;SDS011;4872;48.316;10.650;2023-04-10T09:08:05;5.60;;;4.93;;
9667;SDS011;4872;48.316;10.650;2023-04-10T09:10:33;5.30;;;4.80;;
9667;SDS011;4872;48.316;10.650;2023-04-10T09:12:59;6.73;;;5.43;;
9667;SDS011;4872;48.316;10.650;2023-04-10T09:15:27;8.10;;;5.77;;
9667;SDS011;4872;48.316;10.650;2023-04-10T09:17:55;6.97;;;5.43;;
9667;SDS011;4872;48.316;10.650;2023-04-10T09:20:25;5.87;;;5.27;;
9667;SDS011;4872;48.316;10.650;2023-04-10T09:22:53;6.43;;;5.43;;
9667;SDS011;4872;48.316;10.650;2023-04-10T09:25:30;6.07;;;5.43;;
9667;SDS011;4872;48.316;10.650;2023-04-10T09:27:58;7.17;;;5.60;;
9667;SDS011;4872;48.316;10.650;2023-04-10T09:30:32;5.20;;;4.70;;
9667;SDS011;4872;48.316;10.650;2023-04-10T09:33:00;5.87;;;5.30;;
9667;SDS011;4872;48.316;10.650;2023-04-10T09:35:34;5.87;;;5.00;;
9667;SDS011;4872;48.316;10.650;2023-04-10T09:38:12;6.00;;;5.40;;
9667;SDS011;4872;48.316;10.650;2023-04-10T09:40:41;5.77;;;5.07;;
9667;SDS011;4872;48.316;10.650;2023-04-10T09:43:18;5.97;;;5.30;;
9667;SDS011;4872;48.316;10.650;2023-04-10T09:45:48;7.47;;;5.47;;
9667;SDS011;4872;48.316;10.650;2023-04-10T09:48:15;6.80;;;5.83;;
9667;SDS011;4872;48.316;10.650;2023-04-10T09:50:43;5.20;;;4.70;;
9667;SDS011;4872;48.316;10.650;2023-04-10T09:53:11;5.07;;;4.57;;
9667;SDS011;4872;48.316;10.650;2023-04-10T09:55:39;5.23;;;4.73;;
9667;SDS011;4872;48.316;10.650;2023-04-10T09:58:07;5.20;;;4.63;;
9667;SDS011;4872;48.316;10.650;2023-04-10T10:00:35;5.10;;;4.43;;
9667;SDS011;4872;48.316;10.650;2023-04-10T10:03:06;5.87;;;4.97;;
9667;SDS011;4872;48.316;10.650;2023-04-10T10:05:36;5.73;;;4.80;;
9667;SDS011;4872;48.316;10.650;2023-04-10T10:08:04;5.40;;;4.90;;
9667;SDS011;4872;48.316;10.650;2023-04-10T10:10:31;5.97;;;5.13;;
9667;SDS011;4872;48.316;10.650;2023-04-10T10:12:59;5.57;;;4.93;;
9667;SDS011;4872;48.316;10.650;2023-04-10T10:15:29;5.03;;;4.43;;
9667;SDS011;4872;48.316;10.650;2023-04-10T10:18:02;5.00;;;4.47;;
9667;SDS011;4872;48.316;10.650;2023-04-10T10:20:37;5.33;;;4.57;;
9667;SDS011;4872;48.316;10.650;2023-04-10T10:23:07;4.83;;;4.40;;
9667;SDS011;4872;48.316;10.650;2023-04-10T10:25:34;5.33;;;4.27;;
9667;SDS011;4872;48.316;10.650;2023-04-10T10:28:03;4.90;;;4.40;;
9667;SDS011;4872;48.316;10.650;2023-04-10T10:30:31;4.77;;;4.33;;
9667;SDS011;4872;48.316;10.650;2023-04-10T10:32:58;3.83;;;3.40;;
9667;SDS011;4872;48.316;10.650;2023-04-10T10:35:29;4.90;;;4.30;;
9667;SDS011;4872;48.316;10.650;2023-04-10T10:37:58;5.40;;;4.37;;
9667;SDS011;4872;48.316;10.650;2023-04-10T10:40:27;4.55;;;4.15;;
9667;SDS011;4872;48.316;10.650;2023-04-10T10:42:59;5.43;;;4.90;;
9667;SDS011;4872;48.316;10.650;2023-04-10T10:45:33;4.73;;;4.30;;
9667;SDS011;4872;48.316;10.650;2023-04-10T10:48:05;5.27;;;4.30;;
9667;SDS011;4872;48.316;10.650;2023-04-10T10:50:51;6.03;;;4.43;;
9667;SDS011;4872;48.316;10.650;2023-04-10T10:53:35;4.87;;;4.23;;
9667;SDS011;4872;48.316;10.650;2023-04-10T10:58:58;4.63;;;4.23;;
9667;SDS011;4872;48.316;10.650;2023-04-10T11:01:26;4.37;;;3.97;;
9667;SDS011;4872;48.316;10.650;2023-04-10T11:03:53;3.97;;;3.57;;
9667;SDS011;4872;48.316;10.650;2023-04-10T11:06:20;4.00;;;3.70;;
9667;SDS011;4872;48.316;10.650;2023-04-10T11:09:08;4.50;;;3.97;;
9667;SDS011;4872;48.316;10.650;2023-04-10T11:12:13;4.43;;;3.47;;
9667;SDS011;4872;48.316;10.650;2023-04-10T11:14:41;4.03;;;3.63;;
9667;SDS011;4872;48.316;10.650;2023-04-10T11:17:08;3.90;;;3.50;;
9667;SDS011;4872;48.316;10.650;2023-04-10T11:22:23;3.70;;;3.40;;
9667;SDS011;4872;48.316;10.650;2023-04-10T11:24:52;3.50;;;3.20;;
9667;SDS011;4872;48.316;10.650;2023-04-10T11:27:42;3.77;;;3.43;;
9667;SDS011;4872;48.316;10.650;2023-04-10T11:30:26;3.70;;;3.20;;
9667;SDS011;4872;48.316;10.650;2023-04-10T11:32:54;3.23;;;2.93;;
9667;SDS011;4872;48.316;10.650;2023-04-10T11:35:21;3.50;;;3.20;;
9667;SDS011;4872;48.316;10.650;2023-04-10T11:37:48;3.90;;;3.30;;
9667;SDS011;4872;48.316;10.650;2023-04-10T11:40:17;3.60;;;3.23;;
9667;SDS011;4872;48.316;10.650;2023-04-10T11:42:43;3.87;;;3.27;;
9667;SDS011;4872;48.316;10.650;2023-04-10T11:45:21;3.67;;;3.37;;
9667;SDS011;4872;48.316;10.650;2023-04-10T11:47:52;3.90;;;3.50;;
9667;SDS011;4872;48.316;10.650;2023-04-10T11:50:19;3.87;;;3.47;;
9667;SDS011;4872;48.316;10.650;2023-04-10T11:52:46;3.60;;;3.23;;
9667;SDS011;4872;48.316;10.650;2023-04-10T11:55:14;3.27;;;2.83;;
9667;SDS011;4872;48.316;10.650;2023-04-10T11:57:43;3.27;;;2.93;;
9667;SDS011;4872;48.316;10.650;2023-04-10T12:00:10;2.90;;;2.70;;
9667;SDS011;4872;48.316;10.650;2023-04-10T12:02:48;3.33;;;2.83;;
9667;SDS011;4872;48.316;10.650;2023-04-10T12:05:16;3.00;;;2.63;;
9667;SDS011;4872;48.316;10.650;2023-04-10T12:07:43;3.23;;;2.93;;
9667;SDS011;4872;48.316;10.650;2023-04-10T12:10:10;4.30;;;3.00;;
9667;SDS011;4872;48.316;10.650;2023-04-10T12:12:38;4.40;;;3.10;;
9667;SDS011;4872;48.316;10.650;2023-04-10T12:17:51;3.30;;;3.00;;
9667;SDS011;4872;48.316;10.650;2023-04-10T12:20:17;3.67;;;3.37;;
9667;SDS011;4872;48.316;10.650;2023-04-10T12:22:45;3.37;;;3.07;;
9667;SDS011;4872;48.316;10.650;2023-04-10T12:25:12;3.50;;;3.00;;
9667;SDS011;4872;48.316;10.650;2023-04-10T12:27:46;3.30;;;3.00;;
9667;SDS011;4872;48.316;10.650;2023-04-10T12:30:13;3.30;;;2.90;;
9667;SDS011;4872;48.316;10.650;2023-04-10T12:32:40;3.27;;;2.97;;
9667;SDS011;4872;48.316;10.650;2023-04-10T12:35:17;3.03;;;2.73;;
9667;SDS011;4872;48.316;10.650;2023-04-10T12:37:48;3.13;;;2.93;;
9667;SDS011;4872;48.316;10.650;2023-04-10T12:40:15;3.43;;;3.13;;
9667;SDS011;4872;48.316;10.650;2023-04-10T12:42:43;3.50;;;3.20;;
9667;SDS011;4872;48.316;10.650;2023-04-10T12:45:10;3.80;;;3.43;;
9667;SDS011;4872;48.316;10.650;2023-04-10T12:47:45;3.40;;;3.10;;
9667;SDS011;4872;48.316;10.650;2023-04-10T12:50:12;3.10;;;2.80;;
9667;SDS011;4872;48.316;10.650;2023-04-10T12:52:40;3.20;;;2.90;;
9667;SDS011;4872;48.316;10.650;2023-04-10T12:55:12;3.53;;;2.80;;
9667;SDS011;4872;48.316;10.650;2023-04-10T12:57:40;3.20;;;2.90;;
9667;SDS011;4872;48.316;10.650;2023-04-10T13:00:10;4.43;;;2.70;;
9667;SDS011;4872;48.316;10.650;2023-04-10T13:02:39;2.97;;;2.67;;
9667;SDS011;4872;48.316;10.650;2023-04-10T13:05:06;2.70;;;2.50;;
9667;SDS011;4872;48.316;10.650;2023-04-10T13:07:34;3.00;;;2.70;;
9667;SDS011;4872;48.316;10.650;2023-04-10T13:10:05;2.70;;;2.50;;
9667;SDS011;4872;48.316;10.650;2023-04-10T13:12:33;3.00;;;2.70;;
9667;SDS011;4872;48.316;10.650;2023-04-10T13:15:00;3.40;;;3.10;;
9667;SDS011;4872;48.316;10.650;2023-04-10T13:17:28;3.97;;;3.20;;
9667;SDS011;4872;48.316;10.650;2023-04-10T13:19:56;5.23;;;2.80;;
9667;SDS011;4872;48.316;10.650;2023-04-10T13:22:23;3.07;;;2.77;;
9667;SDS011;4872;48.316;10.650;2023-04-10T13:24:50;4.57;;;3.77;;
9667;SDS011;4872;48.316;10.650;2023-04-10T13:27:16;3.33;;;3.03;;
9667;SDS011;4872;48.316;10.650;2023-04-10T13:29:43;3.57;;;3.17;;
9667;SDS011;4872;48.316;10.650;2023-04-10T13:32:10;3.67;;;3.37;;
9667;SDS011;4872;48.316;10.650;2023-04-10T13:34:38;3.20;;;2.90;;
9667;SDS011;4872;48.316;10.650;2023-04-10T13:37:04;3.20;;;2.90;;
9667;SDS011;4872;48.316;10.650;2023-04-10T13:39:31;3.23;;;2.93;;
9667;SDS011;4872;48.316;10.650;2023-04-10T13:41:58;2.93;;;2.70;;
9667;SDS011;4872;48.316;10.650;2023-04-10T13:44:26;2.80;;;2.60;;
9667;SDS011;4872;48.316;10.650;2023-04-10T13:46:52;2.87;;;2.33;;
9667;SDS011;4872;48.316;10.650;2023-04-10T13:49:19;2.93;;;2.63;;
9667;SDS011;4872;48.316;10.650;2023-04-10T13:51:47;3.33;;;3.03;;
9667;SDS011;4872;48.316;10.650;2023-04-10T13:54:14;3.50;;;3.20;;
9667;SDS011;4872;48.316;10.650;2023-04-10T13:56:41;3.57;;;3.27;;
9667;SDS011;4872;48.316;10.650;2023-04-10T13:59:08;3.73;;;2.97;;
9667;SDS011;4872;48.316;10.650;2023-04-10T14:01:35;3.30;;;3.00;;
9667;SDS011;4872;48.316;10.650;2023-04-10T14:04:02;3.07;;;2.83;;
9667;SDS011;4872;48.316;10.650;2023-04-10T14:06:29;3.30;;;2.77;;
9667;SDS011;4872;48.316;10.650;2023-04-10T14:08:57;3.87;;;3.03;;
9667;SDS011;4872;48.316;10.650;2023-04-10T14:11:24;3.53;;;2.80;;
9667;SDS011;4872;48.316;10.650;2023-04-10T14:13:51;2.70;;;2.50;;
9667;SDS011;4872;48.316;10.650;2023-04-10T14:16:18;3.53;;;2.70;;
9667;SDS011;4872;48.316;10.650;2023-04-10T14:18:45;2.93;;;2.73;;
9667;SDS011;4872;48.316;10.650;2023-04-10T14:21:11;2.60;;;2.40;;
9667;SDS011;4872;48.316;10.650;2023-04-10T14:23:39;3.33;;;3.00;;
9667;SDS011;4872;48.316;10.650;2023-04-10T14:26:07;3.17;;;2.63;;
9667;SDS011;4872;48.316;10.650;2023-04-10T14:28:34;2.93;;;2.30;;
9667;SDS011;4872;48.316;10.650;2023-04-10T14:31:01;3.10;;;2.83;;
9667;SDS011;4872;48.316;10.650;2023-04-10T14:33:30;3.37;;;3.07;;
9667;SDS011;4872;48.316;10.650;2023-04-10T14:35:57;3.37;;;2.50;;
9667;SDS011;4872;48.316;10.650;2023-04-10T14:38:23;2.80;;;2.60;;
9667;SDS011;4872;48.316;10.650;2023-04-10T14:40:50;2.77;;;2.57;;
9667;SDS011;4872;48.316;10.650;2023-04-10T14:43:19;2.87;;;2.67;;
9667;SDS011;4872;48.316;10.650;2023-04-10T14:45:45;2.67;;;2.47;;
9667;SDS011;4872;48.316;10.650;2023-04-10T14:48:12;2.23;;;2.10;;
9667;SDS011;4872;48.316;10.650;2023-04-10T14:50:39;2.67;;;2.47;;
9667;SDS011;4872;48.316;10.650;2023-04-10T14:53:06;2.70;;;2.50;;
9667;SDS011;4872;48.316;10.650;2023-04-10T14:55:33;4.17;;;3.13;;
9667;SDS011;4872;48.316;10.650;2023-04-10T14:58:00;4.10;;;2.93;;
9667;SDS011;4872;48.316;10.650;2023-04-10T15:00:29;3.53;;;2.37;;
9667;SDS011;4872;48.316;10.650;2023-04-10T15:02:56;2.50;;;2.30;;
9667;SDS011;4872;48.316;10.650;2023-04-10T15:05:23;2.60;;;2.40;;
9667;SDS011;4872;48.316;10.650;2023-04-10T15:07:50;2.30;;;2.10;;
9667;SDS011;4872;48.316;10.650;2023-04-10T15:10:17;2.63;;;2.40;;
9667;SDS011;4872;48.316;10.650;2023-04-10T15:12:44;3.83;;;3.53;;
9667;SDS011;4872;48.316;10.650;2023-04-10T15:15:11;2.70;;;2.50;;
9667;SDS011;4872;48.316;10.650;2023-04-10T15:17:39;2.70;;;2.50;;
9667;SDS011;4872;48.316;10.650;2023-04-10T15:20:06;3.57;;;2.50;;
9667;SDS011;4872;48.316;10.650;2023-04-10T15:22:33;2.40;;;2.20;;
9667;SDS011;4872;48.316;10.650;2023-04-10T15:25:00;2.37;;;2.17;;
9667;SDS011;4872;48.316;10.650;2023-04-10T15:27:27;2.33;;;2.07;;
9667;SDS011;4872;48.316;10.650;2023-04-10T15:29:54;2.40;;;2.20;;
9667;SDS011;4872;48.316;10.650;2023-04-10T15:32:21;2.50;;;2.30;;
9667;SDS011;4872;48.316;10.650;2023-04-10T15:34:50;2.30;;;2.10;;
9667;SDS011;4872;48.316;10.650;2023-04-10T15:37:16;2.30;;;2.10;;
9667;SDS011;4872;48.316;10.650;2023-04-10T15:39:43;2.63;;;2.43;;
9667;SDS011;4872;48.316;10.650;2023-04-10T15:42:10;2.60;;;2.40;;
9667;SDS011;4872;48.316;10.650;2023-04-10T15:44:37;2.40;;;2.20;;
9667;SDS011;4872;48.316;10.650;2023-04-10T15:47:03;12.00;;;7.17;;
9667;SDS011;4872;48.316;10.650;2023-04-10T15:49:30;2.87;;;2.67;;
9667;SDS011;4872;48.316;10.650;2023-04-10T15:51:58;2.60;;;2.40;;
9667;SDS011;4872;48.316;10.650;2023-04-10T15:54:25;2.60;;;2.20;;
9667;SDS011;4872;48.316;10.650;2023-04-10T15:56:52;2.07;;;1.97;;
9667;SDS011;4872;48.316;10.650;2023-04-10T15:59:20;3.70;;;3.20;;
9667;SDS011;4872;48.316;10.650;2023-04-10T16:01:46;2.70;;;2.50;;
9667;SDS011;4872;48.316;10.650;2023-04-10T16:04:13;2.07;;;1.90;;
9667;SDS011;4872;48.316;10.650;2023-04-10T16:06:40;2.37;;;2.17;;
9667;SDS011;4872;48.316;10.650;2023-04-10T16:09:08;2.70;;;2.50;;
9667;SDS011;4872;48.316;10.650;2023-04-10T16:11:36;2.43;;;2.23;;
9667;SDS011;4872;48.316;10.650;2023-04-10T16:14:03;2.53;;;2.30;;
9667;SDS011;4872;48.316;10.650;2023-04-10T16:16:30;2.77;;;2.30;;
9667;SDS011;4872;48.316;10.650;2023-04-10T16:18:59;2.27;;;2.07;;
9667;SDS011;4872;48.316;10.650;2023-04-10T16:21:26;2.30;;;2.10;;
9667;SDS011;4872;48.316;10.650;2023-04-10T16:23:53;2.37;;;2.10;;
9667;SDS011;4872;48.316;10.650;2023-04-10T16:26:21;2.37;;;2.17;;
9667;SDS011;4872;48.316;10.650;2023-04-10T16:28:47;1.97;;;1.87;;
9667;SDS011;4872;48.316;10.650;2023-04-10T16:31:15;2.30;;;2.10;;
9667;SDS011;4872;48.316;10.650;2023-04-10T16:33:42;2.97;;;2.00;;
9667;SDS011;4872;48.316;10.650;2023-04-10T16:36:08;2.30;;;2.10;;
9667;SDS011;4872;48.316;10.650;2023-04-10T16:38:35;3.00;;;2.20;;
9667;SDS011;4872;48.316;10.650;2023-04-10T16:41:02;2.70;;;2.50;;
9667;SDS011;4872;48.316;10.650;2023-04-10T16:43:31;2.63;;;2.30;;
9667;SDS011;4872;48.316;10.650;2023-04-10T16:45:58;2.53;;;2.33;;
9667;SDS011;4872;48.316;10.650;2023-04-10T16:48:25;2.50;;;2.30;;
9667;SDS011;4872;48.316;10.650;2023-04-10T16:50:51;2.27;;;2.07;;
9667;SDS011;4872;48.316;10.650;2023-04-10T16:53:18;2.63;;;2.30;;
9667;SDS011;4872;48.316;10.650;2023-04-10T16:55:54;2.70;;;2.37;;
9667;SDS011;4872;48.316;10.650;2023-04-10T16:58:22;2.40;;;2.20;;
9667;SDS011;4872;48.316;10.650;2023-04-10T17:00:50;2.60;;;2.20;;
9667;SDS011;4872;48.316;10.650;2023-04-10T17:03:17;2.70;;;2.50;;
9667;SDS011;4872;48.316;10.650;2023-04-10T17:05:43;2.80;;;2.60;;
9667;SDS011;4872;48.316;10.650;2023-04-10T17:08:11;2.73;;;2.53;;
9667;SDS011;4872;48.316;10.650;2023-04-10T17:10:38;5.43;;;4.40;;
9667;SDS011;4872;48.316;10.650;2023-04-10T17:13:05;3.87;;;3.07;;
9667;SDS011;4872;48.316;10.650;2023-04-10T17:15:32;3.17;;;2.80;;
9667;SDS011;4872;48.316;10.650;2023-04-10T17:18:00;3.00;;;2.80;;
9667;SDS011;4872;48.316;10.650;2023-04-10T17:20:26;3.43;;;3.10;;
9667;SDS011;4872;48.316;10.650;2023-04-10T17:22:54;3.30;;;3.00;;
9667;SDS011;4872;48.316;10.650;2023-04-10T17:25:21;3.27;;;3.00;;
9667;SDS011;4872;48.316;10.650;2023-04-10T17:27:48;3.70;;;3.10;;
9667;SDS011;4872;48.316;10.650;2023-04-10T17:30:14;3.43;;;2.83;;
9667;SDS011;4872;48.316;10.650;2023-04-10T17:32:41;3.60;;;3.30;;
9667;SDS011;4872;48.316;10.650;2023-04-10T17:35:09;3.07;;;2.77;;
9667;SDS011;4872;48.316;10.650;2023-04-10T17:37:36;3.73;;;3.20;;
9667;SDS011;4872;48.316;10.650;2023-04-10T17:40:03;3.03;;;2.73;;
9667;SDS011;4872;48.316;10.650;2023-04-10T17:42:30;3.67;;;3.20;;
9667;SDS011;4872;48.316;10.650;2023-04-10T17:44:57;5.47;;;4.90;;
9667;SDS011;4872;48.316;10.650;2023-04-10T17:47:24;3.77;;;3.47;;
9667;SDS011;4872;48.316;10.650;2023-04-10T17:49:50;3.50;;;3.10;;
9667;SDS011;4872;48.316;10.650;2023-04-10T17:52:23;3.57;;;3.27;;
9667;SDS011;4872;48.316;10.650;2023-04-10T17:54:49;3.43;;;3.10;;
9667;SDS011;4872;48.316;10.650;2023-04-10T17:57:16;3.60;;;3.30;;
9667;SDS011;4872;48.316;10.650;2023-04-10T17:59:43;3.30;;;3.00;;
9667;SDS011;4872;48.316;10.650;2023-04-10T18:02:10;3.70;;;3.40;;
9667;SDS011;4872;48.316;10.650;2023-04-10T18:04:36;3.63;;;3.33;;
9667;SDS011;4872;48.316;10.650;2023-04-10T18:07:03;4.23;;;3.80;;
9667;SDS011;4872;48.316;10.650;2023-04-10T18:09:31;4.23;;;3.83;;
9667;SDS011;4872;48.316;10.650;2023-04-10T18:11:58;3.60;;;3.30;;
9667;SDS011;4872;48.316;10.650;2023-04-10T18:14:25;4.77;;;4.27;;
9667;SDS011;4872;48.316;10.650;2023-04-10T18:16:52;7.10;;;5.80;;
9667;SDS011;4872;48.316;10.650;2023-04-10T18:19:18;21.70;;;14.83;;
9667;SDS011;4872;48.316;10.650;2023-04-10T18:21:45;19.07;;;13.97;;
9667;SDS011;4872;48.316;10.650;2023-04-10T18:24:12;11.27;;;10.17;;
9667;SDS011;4872;48.316;10.650;2023-04-10T18:26:41;8.40;;;7.60;;
9667;SDS011;4872;48.316;10.650;2023-04-10T18:29:09;11.60;;;7.67;;
9667;SDS011;4872;48.316;10.650;2023-04-10T18:31:35;5.60;;;4.90;;
9667;SDS011;4872;48.316;10.650;2023-04-10T18:34:02;5.23;;;4.20;;
9667;SDS011;4872;48.316;10.650;2023-04-10T18:36:29;5.63;;;5.03;;
9667;SDS011;4872;48.316;10.650;2023-04-10T18:38:56;4.20;;;3.80;;
9667;SDS011;4872;48.316;10.650;2023-04-10T18:41:23;6.50;;;6.00;;
9667;SDS011;4872;48.316;10.650;2023-04-10T18:43:51;4.83;;;4.33;;
9667;SDS011;4872;48.316;10.650;2023-04-10T18:46:17;5.57;;;5.07;;
9667;SDS011;4872;48.316;10.650;2023-04-10T18:48:44;6.93;;;6.23;;
9667;SDS011;4872;48.316;10.650;2023-04-10T18:51:14;7.00;;;6.40;;
9667;SDS011;4872;48.316;10.650;2023-04-10T18:53:41;7.13;;;6.43;;
9667;SDS011;4872;48.316;10.650;2023-04-10T18:56:07;7.80;;;6.87;;
9667;SDS011;4872;48.316;10.650;2023-04-10T18:58:34;6.90;;;6.20;;
9667;SDS011;4872;48.316;10.650;2023-04-10T19:01:02;5.97;;;5.20;;
9667;SDS011;4872;48.316;10.650;2023-04-10T19:03:29;5.57;;;4.93;;
9667;SDS011;4872;48.316;10.650;2023-04-10T19:05:56;5.40;;;4.90;;
9667;SDS011;4872;48.316;10.650;2023-04-10T19:08:23;5.30;;;4.80;;
9667;SDS011;4872;48.316;10.650;2023-04-10T19:10:50;7.13;;;6.17;;
9667;SDS011;4872;48.316;10.650;2023-04-10T19:13:16;12.07;;;10.03;;